createdAt,value
2022-11-29T00:01:32.471Z,0.40
2022-11-29T00:04:02.487Z,0.30
2022-11-29T00:06:32.139Z,0.30
2022-11-29T00:09:02.563Z,0.30
2022-11-29T00:11:49.467Z,0.30
2022-11-29T00:14:18.955Z,0.30
2022-11-29T00:16:53.150Z,0.30
2022-11-29T00:19:23.043Z,0.30
2022-11-29T00:21:51.365Z,0.30
2022-11-29T00:24:19.541Z,0.30
2022-11-29T00:26:47.560Z,0.20
2022-11-29T00:29:15.743Z,0.30
2022-11-29T00:31:44.435Z,0.20
2022-11-29T00:34:13.617Z,0.20
2022-11-29T00:36:43.013Z,0.20
2022-11-29T00:39:12.796Z,0.20
2022-11-29T00:41:41.333Z,0.20
2022-11-29T00:44:12.840Z,0.10
2022-11-29T00:46:43.407Z,0.20
2022-11-29T00:49:11.481Z,0.20
2022-11-29T00:51:39.672Z,0.20
2022-11-29T00:54:09.092Z,0.10
2022-11-29T00:56:37.076Z,0.10
2022-11-29T00:59:05.132Z,0.10
2022-11-29T01:01:33.192Z,0.10
2022-11-29T01:04:01.862Z,0.10
2022-11-29T01:06:30.505Z,0.10
2022-11-29T01:08:58.494Z,0.10
2022-11-29T01:11:29.771Z,0.00
2022-11-29T01:13:59.810Z,0.00
2022-11-29T01:16:29.877Z,0.00
2022-11-29T01:18:58.004Z,0.10
2022-11-29T01:21:26.335Z,0.10
2022-11-29T01:23:55.016Z,0.00
2022-11-29T01:26:28.019Z,0.00
2022-11-29T01:28:57.664Z,0.00
2022-11-29T01:31:28.175Z,0.00
2022-11-29T01:33:56.597Z,-0.10
2022-11-29T01:36:25.452Z,-0.10
2022-11-29T01:38:54.478Z,-0.10
2022-11-29T01:41:25.111Z,0.00
2022-11-29T01:44:00.804Z,-0.10
2022-11-29T01:46:30.471Z,0.00
2022-11-29T01:49:03.127Z,-0.10
2022-11-29T01:51:32.457Z,-0.10
2022-11-29T01:54:00.767Z,-0.10
2022-11-29T01:56:30.536Z,-0.10
2022-11-29T01:59:02.149Z,0.00
2022-11-29T02:01:30.307Z,-0.10
2022-11-29T02:03:59.097Z,-0.10
2022-11-29T02:06:28.258Z,-0.10
2022-11-29T02:08:56.739Z,-0.10
2022-11-29T02:11:53.212Z,-0.20
2022-11-29T02:14:37.279Z,-0.20
2022-11-29T02:17:15.603Z,-0.20
2022-11-29T02:20:21.818Z,-0.20
2022-11-29T02:22:57.268Z,-0.30
2022-11-29T02:25:36.755Z,-0.30
2022-11-29T02:28:45.990Z,-0.30
2022-11-29T02:32:01.596Z,-0.30
2022-11-29T02:34:49.383Z,-0.30
2022-11-29T02:37:53.120Z,-0.40
2022-11-29T02:40:42.599Z,-0.40
2022-11-29T02:43:37.654Z,-0.40
2022-11-29T02:46:18.350Z,-0.40
2022-11-29T02:48:56.717Z,-0.40
2022-11-29T02:51:32.106Z,-0.50
2022-11-29T02:54:07.449Z,-0.50
2022-11-29T02:56:40.940Z,-0.50
2022-11-29T02:59:15.350Z,-0.50
2022-11-29T03:01:51.271Z,-0.50
2022-11-29T03:04:28.868Z,-0.50
2022-11-29T03:07:05.223Z,-0.50
2022-11-29T03:09:40.636Z,-0.50
2022-11-29T03:12:19.711Z,-0.50
2022-11-29T03:14:58.486Z,-0.50
2022-11-29T03:17:36.492Z,-0.60
2022-11-29T03:20:15.039Z,-0.50
2022-11-29T03:22:56.190Z,-0.60
2022-11-29T03:25:30.214Z,-0.60
2022-11-29T03:28:02.790Z,-0.60
2022-11-29T03:30:35.747Z,-0.60
2022-11-29T03:33:11.010Z,-0.60
2022-11-29T03:35:44.697Z,-0.60
2022-11-29T03:38:21.566Z,-0.60
2022-11-29T03:40:57.023Z,-0.50
2022-11-29T03:43:31.635Z,-0.50
2022-11-29T03:46:04.880Z,-0.50
2022-11-29T03:48:37.599Z,-0.40
2022-11-29T03:51:12.730Z,-0.40
2022-11-29T03:53:49.752Z,-0.40
2022-11-29T03:56:29.601Z,-0.40
2022-11-29T03:59:11.312Z,-0.40
2022-11-29T04:02:03.826Z,-0.50
2022-11-29T04:05:05.023Z,-0.50
2022-11-29T04:07:45.247Z,-0.50
2022-11-29T04:10:33.632Z,-0.40
2022-11-29T04:13:49.864Z,-0.50
2022-11-29T04:17:00.091Z,-0.50
2022-11-29T04:20:01.401Z,-0.40
2022-11-29T04:22:51.560Z,-0.50
2022-11-29T04:25:56.754Z,-0.40
2022-11-29T04:28:55.252Z,-0.40
2022-11-29T04:31:40.002Z,-0.40
2022-11-29T04:34:58.939Z,-0.40
2022-11-29T04:38:03.089Z,-0.40
2022-11-29T04:41:12.542Z,-0.40
2022-11-29T04:44:03.983Z,-0.40
2022-11-29T04:46:42.177Z,-0.40
2022-11-29T04:49:31.411Z,-0.40
2022-11-29T04:52:25.852Z,-0.40
2022-11-29T04:55:01.799Z,-0.40
2022-11-29T04:57:37.209Z,-0.40
2022-11-29T05:00:09.857Z,-0.40
2022-11-29T05:02:49.390Z,-0.40
2022-11-29T05:05:28.341Z,-0.40
2022-11-29T05:08:09.340Z,-0.40
2022-11-29T05:10:45.927Z,-0.40
2022-11-29T05:13:25.076Z,-0.40
2022-11-29T05:16:15.675Z,-0.40
2022-11-29T05:19:04.248Z,-0.40
2022-11-29T05:21:43.061Z,-0.40
2022-11-29T05:24:25.163Z,-0.30
2022-11-29T05:27:00.799Z,-0.40
2022-11-29T05:29:36.574Z,-0.40
2022-11-29T05:32:23.815Z,-0.30
2022-11-29T05:35:09.174Z,-0.30
2022-11-29T05:37:45.533Z,-0.30
2022-11-29T05:40:37.451Z,-0.30
2022-11-29T05:43:33.465Z,-0.30
2022-11-29T05:46:08.578Z,-0.30
2022-11-29T05:48:45.364Z,-0.30
2022-11-29T05:51:22.166Z,-0.30
2022-11-29T05:54:05.208Z,-0.40
2022-11-29T05:56:44.008Z,-0.30
2022-11-29T05:59:15.178Z,-0.40
2022-11-29T06:01:55.252Z,-0.40
2022-11-29T06:04:30.219Z,-0.30
2022-11-29T06:07:04.968Z,-0.30
2022-11-29T06:09:39.836Z,-0.30
2022-11-29T06:12:20.665Z,-0.20
2022-11-29T06:15:28.188Z,-0.20
2022-11-29T06:18:14.944Z,-0.20
2022-11-29T06:20:58.606Z,-0.20
2022-11-29T06:23:52.413Z,-0.20
2022-11-29T06:26:35.862Z,-0.20
2022-11-29T06:29:23.773Z,-0.10
2022-11-29T06:31:58.663Z,-0.10
2022-11-29T06:34:34.939Z,-0.10
2022-11-29T06:37:06.798Z,-0.10
2022-11-29T06:39:35.380Z,-0.10
2022-11-29T06:42:03.363Z,-0.10
2022-11-29T06:44:34.945Z,-0.10
2022-11-29T06:47:08.593Z,-0.10
2022-11-29T06:49:45.449Z,-0.10
2022-11-29T06:52:25.185Z,-0.10
2022-11-29T06:55:07.626Z,-0.10
2022-11-29T06:57:55.675Z,-0.20
2022-11-29T07:00:28.139Z,-0.10
2022-11-29T07:03:13.035Z,-0.10
2022-11-29T07:05:42.958Z,-0.10
2022-11-29T07:08:16.100Z,-0.10
2022-11-29T07:10:49.399Z,-0.10
2022-11-29T07:13:18.354Z,-0.10
2022-11-29T07:15:56.139Z,-0.10
2022-11-29T07:18:33.843Z,-0.10
2022-11-29T07:21:14.488Z,-0.10
2022-11-29T07:23:50.891Z,0.00
2022-11-29T07:26:28.135Z,-0.10
2022-11-29T07:29:10.479Z,-0.10
2022-11-29T07:31:47.888Z,0.00
2022-11-29T07:34:24.430Z,0.00
2022-11-29T07:37:02.279Z,0.00
2022-11-29T07:39:44.455Z,0.10
2022-11-29T07:42:20.839Z,0.10
2022-11-29T07:44:58.335Z,0.10
2022-11-29T07:47:29.041Z,0.20
2022-11-29T07:49:59.371Z,0.20
2022-11-29T07:52:29.839Z,0.20
2022-11-29T07:54:57.978Z,0.20
2022-11-29T07:57:26.010Z,0.20
2022-11-29T07:59:53.996Z,0.20
2022-11-29T08:02:28.663Z,0.20
2022-11-29T08:04:56.790Z,0.20
2022-11-29T08:07:25.632Z,0.20
2022-11-29T08:09:55.370Z,0.20
2022-11-29T08:12:23.487Z,0.20
2022-11-29T08:14:51.556Z,0.30
2022-11-29T08:17:19.705Z,0.30
2022-11-29T08:19:47.681Z,0.30
2022-11-29T08:22:15.659Z,0.20
2022-11-29T08:24:43.996Z,0.20
2022-11-29T08:27:13.825Z,0.30
2022-11-29T08:29:41.966Z,0.30
2022-11-29T08:32:10.304Z,0.30
2022-11-29T08:34:38.625Z,0.30
2022-11-29T08:37:06.700Z,0.30
2022-11-29T08:39:34.708Z,0.40
2022-11-29T08:42:02.732Z,0.40
2022-11-29T08:44:32.226Z,0.40
2022-11-29T08:47:17.690Z,0.50
2022-11-29T08:49:59.612Z,0.50
2022-11-29T08:52:45.206Z,0.50
2022-11-29T08:55:13.211Z,0.50
2022-11-29T08:57:41.514Z,0.50
2022-11-29T09:00:14.914Z,0.40
2022-11-29T09:02:42.970Z,0.50
2022-11-29T09:05:12.119Z,0.40
2022-11-29T09:07:40.444Z,0.40
2022-11-29T09:10:10.134Z,0.40
2022-11-29T09:12:38.803Z,0.50
2022-11-29T09:15:10.065Z,0.50
2022-11-29T09:17:39.684Z,0.50
2022-11-29T09:20:09.128Z,0.50
2022-11-29T09:22:37.145Z,0.50
2022-11-29T09:25:05.852Z,0.60
2022-11-29T09:27:34.003Z,0.60
2022-11-29T09:30:01.997Z,0.60
2022-11-29T09:32:31.421Z,0.60
2022-11-29T09:35:00.803Z,0.60
2022-11-29T09:37:29.171Z,0.60
2022-11-29T09:39:57.216Z,0.70
2022-11-29T09:42:43.164Z,0.70
2022-11-29T09:45:16.637Z,0.70
2022-11-29T09:48:08.090Z,0.70
2022-11-29T09:50:42.974Z,0.80
2022-11-29T09:53:26.474Z,0.80
2022-11-29T09:56:05.702Z,0.90
2022-11-29T09:58:40.698Z,0.90
2022-11-29T10:01:14.229Z,0.90
2022-11-29T10:03:46.734Z,0.90
2022-11-29T10:06:24.125Z,0.80
2022-11-29T10:08:57.148Z,0.80
2022-11-29T10:11:29.768Z,0.80
2022-11-29T10:14:02.174Z,0.80
2022-11-29T10:16:42.367Z,0.90
2022-11-29T10:19:19.130Z,0.90
2022-11-29T10:21:58.980Z,0.90
2022-11-29T10:24:30.686Z,1.00
2022-11-29T10:26:58.942Z,1.00
2022-11-29T10:29:27.612Z,1.00
2022-11-29T10:31:56.843Z,1.00
2022-11-29T10:34:26.688Z,1.00
2022-11-29T10:36:59.729Z,1.00
2022-11-29T10:39:37.115Z,1.00
2022-11-29T10:42:28.574Z,1.00
2022-11-29T10:44:57.043Z,1.00
2022-11-29T10:47:25.692Z,1.10
2022-11-29T10:49:53.874Z,1.10
2022-11-29T10:52:25.064Z,1.10
2022-11-29T10:54:56.956Z,1.00
2022-11-29T10:57:25.371Z,1.00
2022-11-29T11:00:01.880Z,1.10
2022-11-29T11:02:30.232Z,1.10
2022-11-29T11:04:59.714Z,1.10
2022-11-29T11:07:33.138Z,1.20
2022-11-29T11:10:01.675Z,1.20
2022-11-29T11:12:31.940Z,1.20
2022-11-29T11:15:28.238Z,1.20
2022-11-29T11:17:58.072Z,1.20
2022-11-29T11:20:28.481Z,1.20
2022-11-29T11:23:03.631Z,1.30
2022-11-29T11:25:36.277Z,1.30
2022-11-29T11:28:18.029Z,1.30
2022-11-29T11:30:52.531Z,1.30
2022-11-29T11:33:22.512Z,1.40
2022-11-29T11:36:13.491Z,1.40
2022-11-29T11:38:50.699Z,1.30
2022-11-29T11:41:22.193Z,1.40
2022-11-29T11:43:56.068Z,1.40
2022-11-29T11:46:24.283Z,1.50
2022-11-29T11:48:54.030Z,1.50
2022-11-29T11:51:27.031Z,1.40
2022-11-29T11:53:58.575Z,1.40
2022-11-29T11:56:35.767Z,1.40
2022-11-29T11:59:03.819Z,1.40
2022-11-29T12:01:38.627Z,1.40
2022-11-29T12:04:12.737Z,1.40
2022-11-29T12:06:52.280Z,1.40
2022-11-29T12:09:29.156Z,1.40
2022-11-29T12:12:09.828Z,1.30
2022-11-29T12:14:46.682Z,1.30
2022-11-29T12:17:23.647Z,1.30
2022-11-29T12:20:05.390Z,1.30
2022-11-29T12:22:45.156Z,1.30
2022-11-29T12:25:23.719Z,1.30
2022-11-29T12:27:52.163Z,1.30
2022-11-29T12:30:20.823Z,1.30
2022-11-29T12:33:04.150Z,1.30
2022-11-29T12:36:02.779Z,1.30
2022-11-29T12:38:52.323Z,1.30
2022-11-29T12:41:33.798Z,1.20
2022-11-29T12:44:11.702Z,1.30
2022-11-29T12:46:41.076Z,1.30
2022-11-29T12:49:21.713Z,1.30
2022-11-29T12:51:58.934Z,1.30
2022-11-29T12:54:43.297Z,1.30
2022-11-29T12:57:19.864Z,1.30
2022-11-29T13:00:08.139Z,1.20
2022-11-29T13:02:46.145Z,1.20
2022-11-29T13:05:24.143Z,1.20
2022-11-29T13:08:05.178Z,1.20
2022-11-29T13:10:50.687Z,1.20
2022-11-29T13:13:31.164Z,1.20
2022-11-29T13:16:06.527Z,1.20
2022-11-29T13:18:39.123Z,1.20
2022-11-29T13:21:16.764Z,1.10
2022-11-29T13:24:10.674Z,1.10
2022-11-29T13:26:41.193Z,1.10
2022-11-29T13:29:16.701Z,1.10
2022-11-29T13:31:46.525Z,1.00
2022-11-29T13:34:20.673Z,1.00
2022-11-29T13:36:58.672Z,1.00
2022-11-29T13:39:38.357Z,1.00
2022-11-29T13:42:12.080Z,1.00
2022-11-29T13:44:47.491Z,1.00
2022-11-29T13:47:18.181Z,1.00
2022-11-29T13:49:58.451Z,1.00
2022-11-29T13:52:41.561Z,1.00
2022-11-29T13:55:29.064Z,1.00
2022-11-29T13:58:18.882Z,1.00
2022-11-29T14:00:53.543Z,1.00
2022-11-29T14:03:34.397Z,1.00
2022-11-29T14:06:21.763Z,0.90
2022-11-29T14:09:32.652Z,0.90
2022-11-29T14:12:19.303Z,0.90
2022-11-29T14:14:53.691Z,0.90
2022-11-29T14:17:47.653Z,0.90
2022-11-29T14:20:52.298Z,0.90
2022-11-29T14:23:36.069Z,0.90
2022-11-29T14:26:31.339Z,0.90
2022-11-29T14:29:00.304Z,0.90
2022-11-29T14:31:54.456Z,0.90
2022-11-29T14:34:44.291Z,0.90
2022-11-29T14:37:41.507Z,0.80
2022-11-29T14:40:34.591Z,0.80
2022-11-29T14:43:05.910Z,0.70
2022-11-29T14:45:36.344Z,0.80
2022-11-29T14:48:04.860Z,0.80
2022-11-29T14:50:36.411Z,0.80
2022-11-29T14:53:06.074Z,0.80
2022-11-29T14:55:37.165Z,0.70
2022-11-29T14:58:21.806Z,0.60
2022-11-29T15:01:08.165Z,0.60
2022-11-29T15:03:43.828Z,0.60
2022-11-29T15:06:19.064Z,0.50
2022-11-29T15:09:02.413Z,0.50
2022-11-29T15:11:44.045Z,0.50
2022-11-29T15:14:20.748Z,0.40
2022-11-29T15:17:09.003Z,0.50
2022-11-29T15:19:56.929Z,0.50
2022-11-29T15:22:30.297Z,0.50
2022-11-29T15:25:01.324Z,0.50
2022-11-29T15:27:29.699Z,0.50
2022-11-29T15:29:59.832Z,0.50
2022-11-29T15:32:31.007Z,0.50
2022-11-29T15:34:59.655Z,0.50
2022-11-29T15:37:44.531Z,0.50
2022-11-29T15:40:14.838Z,0.40
2022-11-29T15:42:45.750Z,0.40
2022-11-29T15:45:34.761Z,0.40
2022-11-29T15:48:14.816Z,0.40
2022-11-29T15:50:48.844Z,0.40
2022-11-29T15:53:22.657Z,0.40
2022-11-29T15:55:53.559Z,0.40
2022-11-29T15:58:22.471Z,0.40
2022-11-29T16:00:52.835Z,0.40
2022-11-29T16:03:26.209Z,0.40
2022-11-29T16:06:03.280Z,0.50
2022-11-29T16:08:37.981Z,0.40
2022-11-29T16:11:07.719Z,0.50
2022-11-29T16:13:40.452Z,0.50
2022-11-29T16:16:13.351Z,0.50
2022-11-29T16:18:43.417Z,0.50
2022-11-29T16:21:25.403Z,0.50
2022-11-29T16:23:55.097Z,0.50
2022-11-29T16:26:27.675Z,0.50
2022-11-29T16:28:57.865Z,0.50
2022-11-29T16:31:33.141Z,0.50
2022-11-29T16:34:09.329Z,0.60
2022-11-29T16:36:40.302Z,0.50
2022-11-29T16:39:25.513Z,0.60
2022-11-29T16:42:07.478Z,0.60
2022-11-29T16:45:14.020Z,0.50
2022-11-29T16:47:53.523Z,0.50
2022-11-29T16:50:23.243Z,0.50
2022-11-29T16:52:56.336Z,0.50
2022-11-29T16:55:33.007Z,0.60
2022-11-29T16:58:01.054Z,0.60
2022-11-29T17:00:35.781Z,0.60
2022-11-29T17:03:04.729Z,0.60
2022-11-29T17:05:33.242Z,0.60
2022-11-29T17:08:01.815Z,0.60
2022-11-29T17:10:32.329Z,0.60
2022-11-29T17:13:01.452Z,0.60
2022-11-29T17:15:29.488Z,0.60
2022-11-29T17:17:57.504Z,0.60
2022-11-29T17:20:25.482Z,0.60
2022-11-29T17:22:53.472Z,0.70
2022-11-29T17:25:21.483Z,0.70
2022-11-29T17:27:50.909Z,0.70
2022-11-29T17:30:19.296Z,0.60
2022-11-29T17:32:47.287Z,0.60
2022-11-29T17:35:15.397Z,0.60
2022-11-29T17:37:43.403Z,0.60
2022-11-29T17:40:13.557Z,0.50
2022-11-29T17:42:41.610Z,0.60
2022-11-29T17:45:12.108Z,0.50
2022-11-29T17:47:40.096Z,0.50
2022-11-29T17:50:08.992Z,0.50
2022-11-29T17:52:37.015Z,0.40
2022-11-29T17:55:05.423Z,0.50
2022-11-29T17:57:36.269Z,0.50
2022-11-29T18:00:06.284Z,0.50
2022-11-29T18:02:35.775Z,0.50
2022-11-29T18:05:03.781Z,0.50
2022-11-29T18:07:34.688Z,0.60
2022-11-29T18:10:02.775Z,0.60
2022-11-29T18:12:33.379Z,0.50
2022-11-29T18:15:01.459Z,0.50
2022-11-29T18:17:30.330Z,0.50
2022-11-29T18:19:59.780Z,0.50
2022-11-29T18:22:28.145Z,0.50
2022-11-29T18:25:10.027Z,0.50
2022-11-29T18:27:44.473Z,0.50
2022-11-29T18:30:12.952Z,0.50
2022-11-29T18:32:41.116Z,0.50
2022-11-29T18:35:11.933Z,0.50
2022-11-29T18:38:13.488Z,0.50
2022-11-29T18:40:28.315Z,0.50
2022-11-29T18:42:56.308Z,0.50
2022-11-29T18:45:24.337Z,0.50
2022-11-29T18:47:54.257Z,0.50
2022-11-29T18:50:23.647Z,0.50
2022-11-29T18:52:54.108Z,0.50
2022-11-29T18:55:22.164Z,0.50
2022-11-29T18:57:50.486Z,0.50
2022-11-29T19:00:18.880Z,0.50
2022-11-29T19:02:47.087Z,0.50
2022-11-29T19:05:15.199Z,0.50
2022-11-29T19:07:44.609Z,0.50
2022-11-29T19:10:13.127Z,0.50
2022-11-29T19:12:41.118Z,0.60
2022-11-29T19:15:10.333Z,0.60
2022-11-29T19:17:43.129Z,0.60
2022-11-29T19:20:12.988Z,0.60
2022-11-29T19:22:41.040Z,0.60
2022-11-29T19:25:11.074Z,0.50
2022-11-29T19:27:40.079Z,0.60
2022-11-29T19:30:10.003Z,0.60
2022-11-29T19:32:37.990Z,0.50
2022-11-29T19:35:06.913Z,0.50
2022-11-29T19:37:35.148Z,0.60
2022-11-29T19:40:03.205Z,0.60
2022-11-29T19:42:32.571Z,0.60
2022-11-29T19:45:16.619Z,0.60
2022-11-29T19:47:47.779Z,0.60
2022-11-29T19:50:16.225Z,0.60
2022-11-29T19:52:44.223Z,0.60
2022-11-29T19:55:12.384Z,0.60
2022-11-29T19:57:41.773Z,0.60
2022-11-29T20:00:10.977Z,0.60
2022-11-29T20:02:39.023Z,0.60
2022-11-29T20:05:08.259Z,0.50
2022-11-29T20:07:36.325Z,0.50
2022-11-29T20:10:06.981Z,0.50
2022-11-29T20:12:35.054Z,0.60
2022-11-29T20:15:05.222Z,0.60
2022-11-29T20:17:33.448Z,0.60
2022-11-29T20:20:01.762Z,0.60
2022-11-29T20:22:29.822Z,0.60
2022-11-29T20:24:57.915Z,0.80
2022-11-29T20:27:25.931Z,1.20
2022-11-29T20:29:56.708Z,1.40
2022-11-29T20:32:26.905Z,1.30
2022-11-29T20:34:55.846Z,1.10
2022-11-29T20:37:52.202Z,1.00
2022-11-29T20:40:24.788Z,0.90
2022-11-29T20:43:06.034Z,0.80
2022-11-29T20:45:37.357Z,0.80
2022-11-29T20:48:13.092Z,0.70
2022-11-29T20:50:44.294Z,0.70
2022-11-29T20:53:24.732Z,0.70
2022-11-29T20:55:54.817Z,0.70
2022-11-29T20:58:22.870Z,0.60
2022-11-29T21:00:51.021Z,0.60
2022-11-29T21:03:22.219Z,0.60
2022-11-29T21:05:51.679Z,0.60
2022-11-29T21:08:22.001Z,0.60
2022-11-29T21:10:50.604Z,0.60
2022-11-29T21:13:20.796Z,0.60
2022-11-29T21:15:50.140Z,0.60
2022-11-29T21:18:23.856Z,0.60
2022-11-29T21:21:02.004Z,0.50
2022-11-29T21:23:39.446Z,0.50
2022-11-29T21:26:12.138Z,0.60
2022-11-29T21:28:47.481Z,0.50
2022-11-29T21:31:19.475Z,0.50
2022-11-29T21:33:52.762Z,0.50
2022-11-29T21:36:20.912Z,0.50
2022-11-29T21:38:54.723Z,0.50
2022-11-29T21:41:23.344Z,0.50
2022-11-29T21:44:05.910Z,0.50
2022-11-29T21:46:37.576Z,0.50
2022-11-29T21:49:07.127Z,0.50
2022-11-29T21:51:35.339Z,0.50
2022-11-29T21:54:03.792Z,0.50
2022-11-29T21:56:34.160Z,0.50
2022-11-29T21:59:02.195Z,0.50
2022-11-29T22:01:30.431Z,0.50
2022-11-29T22:03:58.569Z,0.50
2022-11-29T22:06:29.783Z,0.40
2022-11-29T22:08:59.821Z,0.50
2022-11-29T22:11:35.215Z,0.50
2022-11-29T22:14:18.237Z,0.40
2022-11-29T22:16:48.862Z,0.40
2022-11-29T22:19:18.707Z,0.50
2022-11-29T22:21:50.363Z,0.50
2022-11-29T22:24:20.368Z,0.50
2022-11-29T22:26:49.379Z,0.40
2022-11-29T22:29:17.851Z,0.40
2022-11-29T22:31:47.531Z,0.40
2022-11-29T22:34:15.940Z,0.50
2022-11-29T22:36:44.178Z,0.40
2022-11-29T22:39:16.072Z,0.40
2022-11-29T22:41:46.108Z,0.40
2022-11-29T22:44:19.662Z,0.50
2022-11-29T22:46:47.803Z,0.40
2022-11-29T22:49:17.029Z,0.40
2022-11-29T22:51:45.075Z,0.40
2022-11-29T22:54:18.273Z,0.50
2022-11-29T22:56:47.083Z,0.50
2022-11-29T22:59:15.299Z,0.50
2022-11-29T23:01:43.912Z,0.50
2022-11-29T23:04:13.286Z,0.50
2022-11-29T23:06:43.225Z,0.50
2022-11-29T23:09:15.841Z,0.50
2022-11-29T23:11:51.208Z,0.50
2022-11-29T23:14:19.375Z,0.50
2022-11-29T23:16:47.451Z,0.50
2022-11-29T23:19:16.079Z,0.50
2022-11-29T23:21:45.766Z,0.50
2022-11-29T23:24:13.972Z,0.50
2022-11-29T23:26:45.276Z,0.40
2022-11-29T23:29:15.166Z,0.50
2022-11-29T23:31:43.348Z,0.50
2022-11-29T23:34:11.712Z,0.50
2022-11-29T23:36:39.727Z,0.50
2022-11-29T23:39:08.044Z,0.50
2022-11-29T23:41:36.519Z,0.50
2022-11-29T23:44:06.299Z,0.40
2022-11-29T23:46:35.878Z,0.40
2022-11-29T23:49:03.968Z,0.40
2022-11-29T23:51:32.128Z,0.40
2022-11-29T23:54:00.190Z,0.50
2022-11-29T23:56:28.184Z,0.50
2022-11-29T23:58:56.414Z,0.50
